createdAt,value
2019-05-29T00:02:01.809Z,12.48
2019-05-29T00:07:07.829Z,12.33
2019-05-29T00:12:19.210Z,12.33
2019-05-29T00:17:19.809Z,12.35
2019-05-29T00:22:24.807Z,12.27
2019-05-29T00:27:29.902Z,12.12
2019-05-29T00:32:35.007Z,11.97
2019-05-29T00:37:40.002Z,11.91
2019-05-29T00:42:45.009Z,11.90
2019-05-29T00:47:50.191Z,11.85
2019-05-29T00:52:55.410Z,11.81
2019-05-29T00:58:00.489Z,11.76
2019-05-29T01:03:05.762Z,11.74
2019-05-29T01:08:12.468Z,11.75
2019-05-29T01:13:19.142Z,11.74
2019-05-29T01:18:24.289Z,11.79
2019-05-29T01:23:29.369Z,11.80
2019-05-29T01:28:34.422Z,11.80
2019-05-29T01:33:39.539Z,11.79
2019-05-29T01:38:44.623Z,11.81
2019-05-29T01:43:49.805Z,11.79
2019-05-29T01:48:54.870Z,11.72
2019-05-29T01:54:00.154Z,11.64
2019-05-29T01:59:05.471Z,11.57
2019-05-29T02:04:10.762Z,11.64
2019-05-29T02:09:16.530Z,11.72
2019-05-29T02:14:22.741Z,11.72
2019-05-29T02:19:28.267Z,11.75
2019-05-29T02:24:33.502Z,11.65
2019-05-29T02:29:38.930Z,11.56
2019-05-29T02:34:44.103Z,11.56
2019-05-29T02:39:49.663Z,11.55
2019-05-29T02:44:55.203Z,11.51
2019-05-29T02:50:00.212Z,11.39
2019-05-29T02:55:05.711Z,11.31
2019-05-29T03:00:11.551Z,11.24
2019-05-29T03:05:16.537Z,11.24
2019-05-29T03:10:22.558Z,11.21
2019-05-29T03:15:27.494Z,11.25
2019-05-29T03:20:32.531Z,11.31
2019-05-29T03:25:37.343Z,11.38
2019-05-29T03:30:46.085Z,11.42
2019-05-29T03:35:49.157Z,11.43
2019-05-29T03:40:53.964Z,11.48
2019-05-29T03:45:58.969Z,11.52
2019-05-29T03:51:03.886Z,11.54
2019-05-29T03:56:08.871Z,11.58
2019-05-29T04:01:13.609Z,11.68
2019-05-29T04:06:18.465Z,11.72
2019-05-29T04:11:23.311Z,11.77
2019-05-29T04:16:29.569Z,11.83
2019-05-29T04:21:38.673Z,11.86
2019-05-29T04:26:44.872Z,11.89
2019-05-29T04:31:50.030Z,11.92
2019-05-29T04:36:54.817Z,12.01
2019-05-29T04:41:59.691Z,12.07
2019-05-29T04:47:11.047Z,12.12
2019-05-29T04:52:11.382Z,12.20
2019-05-29T04:57:16.512Z,12.20
2019-05-29T05:02:21.392Z,12.18
2019-05-29T05:07:26.222Z,12.17
2019-05-29T05:12:31.548Z,12.23
2019-05-29T05:17:36.517Z,12.23
2019-05-29T05:22:41.410Z,12.28
2019-05-29T05:27:46.301Z,12.35
2019-05-29T05:32:51.171Z,12.42
2019-05-29T05:37:55.910Z,12.49
2019-05-29T05:43:00.826Z,12.53
2019-05-29T05:48:05.770Z,12.56
2019-05-29T05:53:10.589Z,12.58
2019-05-29T05:58:15.410Z,12.62
2019-05-29T06:03:20.870Z,12.65
2019-05-29T06:08:25.669Z,12.65
2019-05-29T06:13:30.512Z,12.70
2019-05-29T06:18:36.448Z,12.70
2019-05-29T06:23:41.686Z,12.75
2019-05-29T06:28:46.875Z,12.82
2019-05-29T06:33:51.850Z,12.95
2019-05-29T06:38:57.089Z,13.06
2019-05-29T06:44:01.970Z,13.20
2019-05-29T06:49:06.870Z,13.14
2019-05-29T06:54:11.942Z,13.30
2019-05-29T06:59:16.801Z,13.38
2019-05-29T07:04:22.042Z,13.44
2019-05-29T07:09:26.951Z,13.58
2019-05-29T07:14:31.950Z,13.60
2019-05-29T07:19:48.946Z,13.70
2019-05-29T07:24:44.997Z,13.89
2019-05-29T07:29:50.371Z,14.02
2019-05-29T07:35:03.118Z,14.03
2019-05-29T07:40:01.949Z,14.12
2019-05-29T07:45:07.350Z,14.09
2019-05-29T07:50:13.055Z,14.11
2019-05-29T07:55:18.229Z,14.08
2019-05-29T08:00:34.735Z,14.13
2019-05-29T08:05:30.310Z,14.18
2019-05-29T08:10:35.153Z,14.28
2019-05-29T08:15:55.019Z,14.39
2019-05-29T08:20:46.409Z,14.53
2019-05-29T08:25:51.863Z,14.48
2019-05-29T08:30:56.872Z,14.31
2019-05-29T08:36:01.671Z,14.35
2019-05-29T08:41:06.441Z,14.45
2019-05-29T08:46:11.190Z,14.57
2019-05-29T08:51:16.210Z,14.48
2019-05-29T08:56:21.289Z,14.44
2019-05-29T09:01:26.171Z,14.44
2019-05-29T09:06:31.191Z,14.25
2019-05-29T09:11:36.341Z,14.36
2019-05-29T09:16:41.231Z,14.48
2019-05-29T09:21:46.213Z,14.48
2019-05-29T09:26:51.313Z,14.44
2019-05-29T09:31:56.423Z,14.48
2019-05-29T09:37:01.376Z,14.67
2019-05-29T09:42:06.350Z,14.65
2019-05-29T09:47:11.191Z,14.75
2019-05-29T09:52:16.010Z,14.86
2019-05-29T09:57:20.970Z,14.87
2019-05-29T10:02:26.192Z,14.84
2019-05-29T10:07:31.465Z,14.80
2019-05-29T10:12:36.990Z,14.84
2019-05-29T10:17:42.131Z,14.89
2019-05-29T10:22:47.030Z,14.83
2019-05-29T10:27:52.056Z,14.94
2019-05-29T10:32:57.087Z,14.96
2019-05-29T10:38:01.911Z,15.15
2019-05-29T10:43:06.970Z,15.27
2019-05-29T10:48:11.810Z,15.30
2019-05-29T10:53:16.769Z,15.37
2019-05-29T10:58:21.616Z,15.31
2019-05-29T11:03:26.509Z,15.25
2019-05-29T11:08:31.469Z,15.23
2019-05-29T11:13:36.733Z,15.16
2019-05-29T11:18:41.685Z,15.19
2019-05-29T11:23:47.705Z,15.15
2019-05-29T11:28:52.902Z,15.18
2019-05-29T11:33:59.237Z,15.09
2019-05-29T11:39:08.004Z,15.01
2019-05-29T11:44:13.303Z,14.94
2019-05-29T11:49:18.315Z,15.00
2019-05-29T11:54:23.051Z,15.08
2019-05-29T11:59:27.956Z,15.21
2019-05-29T12:04:32.992Z,15.28
2019-05-29T12:09:37.964Z,15.34
2019-05-29T12:14:59.055Z,15.20
2019-05-29T12:19:49.382Z,15.15
2019-05-29T12:24:54.632Z,15.05
2019-05-29T12:30:00.807Z,15.14
2019-05-29T12:35:07.290Z,15.10
2019-05-29T12:40:12.550Z,14.86
2019-05-29T12:45:18.391Z,14.83
2019-05-29T12:50:23.470Z,14.91
2019-05-29T12:55:28.512Z,14.81
2019-05-29T13:00:33.571Z,14.78
2019-05-29T13:05:38.710Z,14.91
2019-05-29T13:10:43.750Z,15.00
2019-05-29T13:15:48.915Z,14.91
2019-05-29T13:20:54.779Z,14.81
2019-05-29T13:25:59.970Z,14.85
2019-05-29T13:31:06.703Z,14.94
2019-05-29T13:36:11.782Z,15.00
2019-05-29T13:41:17.204Z,14.91
2019-05-29T13:46:22.084Z,15.06
2019-05-29T13:51:27.131Z,15.17
2019-05-29T13:56:32.245Z,15.37
2019-05-29T14:01:37.191Z,15.40
2019-05-29T14:06:42.481Z,15.30
2019-05-29T14:11:47.565Z,15.18
2019-05-29T14:16:53.542Z,15.17
2019-05-29T14:21:58.749Z,15.21
2019-05-29T14:27:03.701Z,15.45
2019-05-29T14:32:09.300Z,15.58
2019-05-29T14:37:14.864Z,15.50
2019-05-29T14:42:20.430Z,15.49
2019-05-29T14:47:25.891Z,15.37
2019-05-29T14:52:31.370Z,15.32
2019-05-29T14:57:36.478Z,15.35
2019-05-29T15:02:41.690Z,15.30
2019-05-29T15:07:46.733Z,15.41
2019-05-29T15:12:51.817Z,15.36
2019-05-29T15:17:57.022Z,15.39
2019-05-29T15:23:02.439Z,15.37
2019-05-29T15:28:08.143Z,15.42
2019-05-29T15:33:14.876Z,15.43
2019-05-29T15:38:20.432Z,15.43
2019-05-29T15:43:25.644Z,15.27
2019-05-29T15:48:30.805Z,15.17
2019-05-29T15:53:36.162Z,15.13
2019-05-29T15:58:41.362Z,15.18
2019-05-29T16:03:46.530Z,14.97
2019-05-29T16:08:51.909Z,14.98
2019-05-29T16:13:57.490Z,14.98
2019-05-29T16:19:02.392Z,14.89
2019-05-29T16:24:07.930Z,14.92
2019-05-29T16:29:15.963Z,14.98
2019-05-29T16:34:21.427Z,15.03
2019-05-29T16:39:26.785Z,15.09
2019-05-29T16:44:32.269Z,15.21
2019-05-29T16:49:37.430Z,15.08
2019-05-29T16:54:42.611Z,14.90
2019-05-29T16:59:47.969Z,14.94
2019-05-29T17:04:53.310Z,14.81
2019-05-29T17:09:58.689Z,14.68
2019-05-29T17:15:03.791Z,14.63
2019-05-29T17:20:09.586Z,14.61
2019-05-29T17:25:14.945Z,14.57
2019-05-29T17:30:23.649Z,14.53
2019-05-29T17:35:29.209Z,14.41
2019-05-29T17:40:34.633Z,14.38
2019-05-29T17:45:39.631Z,14.32
2019-05-29T17:50:44.809Z,14.31
2019-05-29T17:55:49.736Z,14.35
2019-05-29T18:00:55.272Z,14.37
2019-05-29T18:06:00.414Z,14.39
2019-05-29T18:11:05.598Z,14.49
2019-05-29T18:16:10.592Z,14.30
2019-05-29T18:21:15.630Z,14.17
2019-05-29T18:26:20.437Z,14.17
2019-05-29T18:31:26.524Z,14.18
2019-05-29T18:36:31.854Z,14.11
2019-05-29T18:41:36.949Z,14.17
2019-05-29T18:46:42.071Z,14.02
2019-05-29T18:51:47.131Z,13.95
2019-05-29T18:57:13.805Z,13.99
2019-05-29T19:01:59.123Z,14.05
2019-05-29T19:07:04.441Z,14.04
2019-05-29T19:12:10.230Z,14.05
2019-05-29T19:17:16.482Z,14.04
2019-05-29T19:22:22.263Z,14.07
2019-05-29T19:27:36.516Z,14.07
2019-05-29T19:32:34.695Z,14.09
2019-05-29T19:37:39.733Z,14.05
2019-05-29T19:42:44.870Z,14.04
2019-05-29T19:47:49.933Z,14.04
2019-05-29T19:52:54.994Z,13.95
2019-05-29T19:58:00.203Z,13.91
2019-05-29T20:03:05.510Z,13.79
2019-05-29T20:08:10.878Z,13.83
2019-05-29T20:13:16.149Z,13.83
2019-05-29T20:18:21.109Z,13.83
2019-05-29T20:23:26.191Z,13.90
2019-05-29T20:28:32.107Z,13.90
2019-05-29T20:33:38.661Z,13.90
2019-05-29T20:38:43.750Z,13.89
2019-05-29T20:43:48.742Z,13.89
2019-05-29T20:48:53.690Z,13.95
2019-05-29T20:53:58.823Z,13.95
2019-05-29T20:59:04.226Z,13.96
2019-05-29T21:04:09.403Z,14.02
2019-05-29T21:09:14.625Z,13.98
2019-05-29T21:14:19.942Z,13.99
2019-05-29T21:19:25.254Z,13.96
2019-05-29T21:24:30.243Z,14.00
2019-05-29T21:29:35.289Z,13.98
2019-05-29T21:34:40.330Z,13.90
2019-05-29T21:39:46.652Z,13.89
2019-05-29T21:44:51.760Z,13.86
2019-05-29T21:49:56.749Z,13.78
2019-05-29T21:55:01.831Z,13.73
2019-05-29T22:00:14.286Z,13.76
2019-05-29T22:05:20.150Z,13.83
2019-05-29T22:10:26.274Z,13.82
2019-05-29T22:15:31.669Z,13.84
2019-05-29T22:20:36.769Z,13.91
2019-05-29T22:25:42.081Z,13.90
2019-05-29T22:30:47.282Z,13.99
2019-05-29T22:35:54.019Z,14.01
2019-05-29T22:40:59.699Z,13.98
2019-05-29T22:46:05.182Z,13.98
2019-05-29T22:51:09.991Z,14.00
2019-05-29T22:56:14.942Z,14.03
2019-05-29T23:01:20.102Z,14.04
2019-05-29T23:06:25.150Z,14.04
2019-05-29T23:11:30.130Z,14.05
2019-05-29T23:16:35.128Z,14.00
2019-05-29T23:21:40.090Z,14.06
2019-05-29T23:26:45.322Z,14.05
2019-05-29T23:31:50.342Z,14.07
2019-05-29T23:36:55.413Z,14.12
2019-05-29T23:42:01.474Z,14.05
2019-05-29T23:47:06.630Z,14.08
2019-05-29T23:52:11.550Z,14.01
2019-05-29T23:57:16.510Z,13.89
